Time;durP1;ratioP1;P1;durP2;ratioP2;P2;SDS_P1;SDS_P2;PMS_P1;PMS_P2;Temp;Humidity;BMP_temperature;BMP_pressure;BME280_temperature;BME280_humidity;BME280_pressure;Samples;Min_cycle;Max_cycle;Signal;HPM_P1;HPM_P2
2022/03/07 00:02:08;;;;;;;11.38;7.20;;;;;;;3.16;56.44;100661.91;4972237;28;20482;-60
2022/03/07 00:04:35;;;;;;;10.65;7.72;;;;;;;3.11;56.57;100664.50;4972345;28;20528;-60
2022/03/07 00:07:00;;;;;;;13.18;7.82;;;;;;;3.08;56.43;100664.47;4972571;28;20065;-60
2022/03/07 00:09:26;;;;;;;12.77;8.05;;;;;;;3.10;56.07;100661.88;4971732;28;20121;-60
2022/03/07 00:11:52;;;;;;;14.32;7.68;;;;;;;3.05;55.21;100660.97;4972429;28;20023;-60
2022/03/07 00:14:18;;;;;;;16.85;8.77;;;;;;;3.06;56.35;100662.72;4972506;28;20049;-60
2022/03/07 00:16:44;;;;;;;12.52;8.57;;;;;;;3.01;56.15;100665.31;4972518;28;20479;-60
2022/03/07 00:19:09;;;;;;;13.77;7.50;;;;;;;2.97;56.83;100654.75;4972295;28;20035;-60
2022/03/07 00:21:36;;;;;;;10.32;7.22;;;;;;;2.95;56.48;100665.22;4972511;28;20034;-60
2022/03/07 00:24:02;;;;;;;11.23;7.35;;;;;;;2.92;56.78;100661.69;4972230;28;20031;-60
2022/03/07 00:26:27;;;;;;;12.70;8.10;;;;;;;2.95;56.56;100654.72;4972417;28;20085;-60
2022/03/07 00:28:53;;;;;;;13.82;7.28;;;;;;;2.94;56.75;100657.34;4971887;28;20425;-60
2022/03/07 00:31:21;;;;;;;9.90;6.35;;;;;;;2.87;55.91;100664.28;4971979;28;20070;-60
2022/03/07 00:33:48;;;;;;;12.60;6.90;;;;;;;2.76;56.37;100646.69;4972170;28;20081;-60
2022/03/07 00:36:13;;;;;;;16.20;7.05;;;;;;;2.87;57.30;100663.44;4972269;28;20381;-60
2022/03/07 00:38:39;;;;;;;15.23;8.70;;;;;;;2.84;56.84;100663.38;4972240;28;20029;-60
2022/03/07 00:41:08;;;;;;;14.07;6.95;;;;;;;2.83;56.40;100664.28;4971692;28;20019;-60
2022/03/07 00:43:33;;;;;;;11.93;6.82;;;;;;;2.80;56.94;100659.84;4971759;28;20027;-60
2022/03/07 00:45:59;;;;;;;13.25;7.50;;;;;;;2.83;55.70;100662.53;4971545;28;20500;-60
2022/03/07 00:48:24;;;;;;;13.20;7.63;;;;;;;2.79;55.41;100665.09;4971996;28;20047;-60
2022/03/07 00:50:52;;;;;;;18.17;7.60;;;;;;;2.78;55.75;100664.25;4971490;28;20033;-60
2022/03/07 00:53:20;;;;;;;12.07;7.18;;;;;;;2.70;55.89;100660.66;4971595;28;20026;-60
2022/03/07 00:55:46;;;;;;;14.35;8.60;;;;;;;2.67;55.72;100666.75;4971676;28;20488;-60
2022/03/07 00:58:12;;;;;;;15.88;6.97;;;;;;;2.58;56.51;100658.81;4971615;28;20033;-60
2022/03/07 01:00:38;;;;;;;15.90;8.00;;;;;;;2.61;56.98;100666.72;4971266;28;20129;-60
2022/03/07 01:03:05;;;;;;;13.23;7.45;;;;;;;2.58;56.76;100673.66;4971688;28;20026;-60
2022/03/07 01:05:31;;;;;;;13.02;7.43;;;;;;;2.63;56.21;100669.34;4970875;28;20046;-60
2022/03/07 01:07:56;;;;;;;13.10;6.90;;;;;;;2.55;56.05;100664.00;4971483;28;20034;-60
2022/03/07 01:10:22;;;;;;;11.02;7.68;;;;;;;2.60;55.92;100667.56;4971126;28;20049;-60
2022/03/07 01:12:48;;;;;;;12.38;7.45;;;;;;;2.68;56.06;100668.50;4970723;28;20054;-60
2022/03/07 01:15:14;;;;;;;10.25;7.40;;;;;;;2.65;55.53;100667.63;4970796;28;20069;-60
2022/03/07 01:17:40;;;;;;;16.40;7.95;;;;;;;2.60;56.13;100666.69;4971507;28;20454;-60
2022/03/07 01:20:07;;;;;;;11.50;7.43;;;;;;;2.61;55.79;100665.81;4969802;28;20054;-60
2022/03/07 01:22:34;;;;;;;11.32;6.15;;;;;;;2.62;55.37;100667.56;4969527;28;20080;-60
2022/03/07 01:24:59;;;;;;;12.98;7.43;;;;;;;2.58;56.51;100671.94;4971132;28;20038;-60
2022/03/07 01:27:24;;;;;;;10.65;6.55;;;;;;;2.59;55.83;100662.28;4970628;28;20034;-60
2022/03/07 01:29:50;;;;;;;12.60;7.03;;;;;;;2.55;56.72;100660.53;4970857;28;20031;-60
2022/03/07 01:32:15;;;;;;;14.23;8.20;;;;;;;2.53;56.84;100663.13;4970705;28;20398;-60
2022/03/07 01:34:42;;;;;;;11.95;6.53;;;;;;;2.53;57.04;100663.13;4971470;28;20099;-60
2022/03/07 01:37:08;;;;;;;11.88;7.13;;;;;;;2.53;57.34;100651.75;4971267;28;20553;-60
2022/03/07 01:39:33;;;;;;;11.68;6.97;;;;;;;2.50;57.16;100647.31;4969844;28;20077;-60
2022/03/07 01:41:59;;;;;;;13.43;7.57;;;;;;;2.51;57.14;100646.47;4970307;28;20106;-60
2022/03/07 01:44:28;;;;;;;11.25;7.28;;;;;;;2.48;56.74;100643.81;4970767;28;20157;-60
2022/03/07 01:46:55;;;;;;;13.07;7.38;;;;;;;2.33;57.38;100627.91;4971198;28;20467;-60
2022/03/07 01:49:21;;;;;;;17.63;8.55;;;;;;;2.44;57.02;100646.38;4969992;28;20033;-60
2022/03/07 01:51:47;;;;;;;14.25;8.60;;;;;;;2.43;57.22;100639.38;4970833;28;20169;-60
2022/03/07 01:54:15;;;;;;;14.05;6.88;;;;;;;2.42;57.58;100642.88;4970678;28;20050;-60
2022/03/07 01:56:42;;;;;;;14.32;7.22;;;;;;;2.40;58.63;100640.25;4971021;28;20030;-60
2022/03/07 01:59:15;;;;;;;12.10;7.38;;;;;;;2.38;58.90;100635.84;4970364;28;20039;-60
2022/03/07 02:01:42;;;;;;;13.98;6.82;;;;;;;2.35;59.01;100634.06;4970672;28;20159;-60
2022/03/07 02:04:08;;;;;;;11.70;7.38;;;;;;;2.32;59.36;100634.00;4971113;28;20038;-60
2022/03/07 02:06:34;;;;;;;12.27;7.45;;;;;;;2.25;59.86;100629.59;4970499;28;20057;-60
2022/03/07 02:08:59;;;;;;;11.48;7.18;;;;;;;2.20;59.61;100631.28;4969928;28;20449;-60
2022/03/07 02:11:25;;;;;;;12.73;6.85;;;;;;;2.22;59.79;100624.31;4970625;28;20031;-60
2022/03/07 02:13:52;;;;;;;12.40;7.25;;;;;;;2.25;59.56;100629.59;4970811;28;20030;-60
2022/03/07 02:16:19;;;;;;;11.18;7.47;;;;;;;2.26;60.21;100626.09;4970809;28;20415;-60
2022/03/07 02:18:46;;;;;;;14.68;7.45;;;;;;;2.18;59.14;100633.00;4974533;28;20093;-60
2022/03/07 02:21:17;;;;;;;10.90;6.35;;;;;;;2.20;60.20;100626.03;4974277;28;20113;-60
2022/03/07 02:23:44;;;;;;;12.30;7.05;;;;;;;2.19;60.78;100624.25;4973993;28;20026;-61
2022/03/07 02:26:11;;;;;;;9.95;6.88;;;;;;;2.17;59.49;100620.75;4974831;28;20031;-60
2022/03/07 02:28:39;;;;;;;10.48;6.60;;;;;;;2.17;59.54;100615.50;4974588;28;20025;-60
2022/03/07 02:31:04;;;;;;;14.38;6.90;;;;;;;2.16;59.52;100618.97;4974019;28;20447;-60
2022/03/07 02:33:30;;;;;;;13.18;7.53;;;;;;;2.21;60.16;100613.78;4974293;28;20105;-60
2022/03/07 02:35:56;;;;;;;11.73;7.07;;;;;;;2.24;60.34;100617.31;4974600;28;20059;-60
2022/03/07 02:38:22;;;;;;;11.52;7.20;;;;;;;2.17;60.78;100607.66;4973861;28;20042;-60
2022/03/07 02:40:48;;;;;;;10.23;6.43;;;;;;;2.16;60.54;100618.97;4973295;28;20541;-60
2022/03/07 02:43:14;;;;;;;11.20;7.03;;;;;;;2.10;61.28;100620.66;4973331;28;20513;-60
2022/03/07 02:45:40;;;;;;;13.90;7.32;;;;;;;2.03;61.47;100610.97;4974374;28;20389;-60
2022/03/07 02:48:05;;;;;;;13.07;7.45;;;;;;;1.97;61.16;100592.53;4974215;28;20030;-60
2022/03/07 02:50:31;;;;;;;9.52;6.22;;;;;;;2.06;61.15;100606.63;4973611;28;20468;-60
2022/03/07 02:52:56;;;;;;;11.07;6.90;;;;;;;2.07;61.41;100608.41;4973375;28;20123;-60
2022/03/07 02:55:23;;;;;;;13.93;6.90;;;;;;;2.14;61.88;100610.22;4973014;28;20046;-60
2022/03/07 02:57:49;;;;;;;11.55;6.93;;;;;;;2.13;61.00;100604.94;4973714;28;20057;-60
2022/03/07 03:00:14;;;;;;;13.98;7.47;;;;;;;2.11;60.74;100607.56;4972947;28;20023;-60
2022/03/07 03:02:40;;;;;;;12.27;8.05;;;;;;;2.12;61.41;100604.09;4973962;28;20058;-60
2022/03/07 03:05:06;;;;;;;10.90;6.72;;;;;;;2.11;60.99;100602.31;4973748;28;20069;-60
2022/03/07 03:07:32;;;;;;;11.00;7.53;;;;;;;2.15;60.79;100611.09;4973607;28;20097;-60
2022/03/07 03:09:57;;;;;;;10.70;6.93;;;;;;;2.09;60.77;100614.53;4970650;28;20033;-60
2022/03/07 03:12:24;;;;;;;10.27;6.55;;;;;;;2.02;60.83;100615.34;4968595;28;20081;-60
2022/03/07 03:14:50;;;;;;;14.57;7.78;;;;;;;2.04;61.40;100608.34;4972968;28;20478;-60
2022/03/07 03:17:16;;;;;;;13.50;7.15;;;;;;;2.08;60.37;100615.41;4973574;28;20038;-61
2022/03/07 03:19:42;;;;;;;12.95;7.60;;;;;;;2.03;60.25;100606.59;4973295;28;20518;-61
2022/03/07 03:22:07;;;;;;;11.23;6.97;;;;;;;2.05;59.97;100612.75;4973407;28;20058;-60
2022/03/07 03:24:33;;;;;;;12.05;6.90;;;;;;;2.07;60.44;100616.28;4973422;28;20027;-60
2022/03/07 03:26:58;;;;;;;12.93;7.38;;;;;;;2.09;60.44;100621.53;4972573;28;20030;-60
2022/03/07 03:29:24;;;;;;;16.30;7.32;;;;;;;1.99;60.64;100599.59;4972394;28;20035;-60
2022/03/07 03:31:49;;;;;;;12.98;7.15;;;;;;;2.03;59.98;100626.69;4973301;28;20031;-60
2022/03/07 03:34:15;;;;;;;10.52;6.20;;;;;;;1.98;60.42;100624.03;4973368;28;20436;-61
2022/03/07 03:36:41;;;;;;;11.35;6.93;;;;;;;1.99;60.73;100631.06;4972587;28;20061;-60
2022/03/07 03:39:06;;;;;;;10.23;6.20;;;;;;;2.02;60.84;100636.34;4971176;28;20026;-60
2022/03/07 03:41:32;;;;;;;11.05;6.97;;;;;;;1.93;61.13;100644.09;4972510;28;20030;-60
2022/03/07 03:43:57;;;;;;;12.38;6.93;;;;;;;1.86;60.53;100639.63;4972820;28;20034;-60
2022/03/07 03:46:22;;;;;;;11.00;6.65;;;;;;;1.86;61.14;100639.63;4973155;28;20029;-60
2022/03/07 03:48:48;;;;;;;12.82;6.68;;;;;;;1.84;61.48;100643.09;4972958;28;20050;-60
2022/03/07 03:51:13;;;;;;;11.60;7.32;;;;;;;1.85;60.94;100637.88;4971980;28;20173;-60
2022/03/07 03:53:39;;;;;;;10.40;7.32;;;;;;;1.84;61.09;100650.97;4973084;28;20483;-60
2022/03/07 03:56:04;;;;;;;12.90;7.00;;;;;;;1.78;61.19;100643.88;4973099;28;20026;-60
2022/03/07 03:58:30;;;;;;;9.90;6.57;;;;;;;1.75;61.26;100648.22;4972777;28;20077;-60
2022/03/07 04:00:55;;;;;;;16.33;6.72;;;;;;;1.72;60.54;100641.19;4972398;28;20037;-60
2022/03/07 04:03:21;;;;;;;11.57;6.88;;;;;;;1.66;60.10;100655.97;4972754;28;20034;-60
2022/03/07 04:05:46;;;;;;;12.38;6.60;;;;;;;1.69;60.98;100645.53;4972329;28;20122;-60
2022/03/07 04:08:11;;;;;;;13.00;7.05;;;;;;;1.61;59.95;100649.78;4972607;28;20061;-60
2022/03/07 04:10:37;;;;;;;9.98;6.57;;;;;;;1.64;60.00;100658.59;4972292;28;20022;-60
2022/03/07 04:13:02;;;;;;;9.80;6.38;;;;;;;1.69;60.09;100646.41;4972621;28;20085;-60
2022/03/07 04:15:28;;;;;;;13.45;6.55;;;;;;;1.62;60.43;100648.91;4972633;28;20027;-60
2022/03/07 04:17:54;;;;;;;11.75;6.72;;;;;;;1.66;59.16;100655.97;4972547;28;20090;-60
2022/03/07 04:20:19;;;;;;;12.85;6.75;;;;;;;1.59;59.36;100648.88;4971605;28;20035;-60
2022/03/07 04:22:45;;;;;;;9.82;6.32;;;;;;;1.58;59.81;100641.88;4972242;28;20034;-60
2022/03/07 04:25:10;;;;;;;14.20;7.25;;;;;;;1.59;58.84;100655.00;4972669;28;20396;-60
2022/03/07 04:27:36;;;;;;;9.45;6.30;;;;;;;1.61;58.38;100657.66;4972189;28;20031;-60
2022/03/07 04:30:05;;;;;;;9.55;6.25;;;;;;;1.59;57.77;100655.00;4972096;28;20030;-60
2022/03/07 04:32:33;;;;;;;12.15;6.72;;;;;;;1.58;58.35;100655.00;4972392;28;20022;-60
2022/03/07 04:34:59;;;;;;;12.05;6.30;;;;;;;1.42;58.32;100643.41;4971808;28;20031;-60
2022/03/07 04:37:25;;;;;;;11.63;6.65;;;;;;;1.48;57.83;100667.09;4972172;28;20034;-60
2022/03/07 04:39:50;;;;;;;9.70;6.60;;;;;;;1.47;57.22;100667.94;4970788;28;20047;-60
2022/03/07 04:42:16;;;;;;;10.43;6.15;;;;;;;1.47;57.27;100665.31;4972221;28;20031;-61
2022/03/07 04:44:41;;;;;;;10.63;6.45;;;;;;;1.49;57.68;100670.59;4972422;28;20023;-60
2022/03/07 04:47:07;;;;;;;11.88;6.68;;;;;;;1.49;57.70;100674.09;4971615;28;20026;-61
2022/03/07 04:49:32;;;;;;;12.02;6.55;;;;;;;1.52;57.79;100678.47;4971189;28;20528;-60
2022/03/07 04:51:57;;;;;;;10.68;6.50;;;;;;;1.43;57.46;100679.25;4971794;28;20053;-60
2022/03/07 04:54:23;;;;;;;14.25;6.50;;;;;;;1.44;57.54;100680.13;4971809;28;20026;-61
2022/03/07 04:56:50;;;;;;;11.73;6.55;;;;;;;1.39;58.33;100690.53;4971808;28;20034;-61
2022/03/07 04:59:17;;;;;;;9.70;6.30;;;;;;;1.35;58.37;100684.38;4971470;28;20031;-61
2022/03/07 05:01:42;;;;;;;10.85;6.47;;;;;;;1.33;58.00;100682.59;4971437;28;20408;-60
2022/03/07 05:04:08;;;;;;;11.40;6.70;;;;;;;1.30;59.24;100688.66;4971165;28;20038;-60
2022/03/07 05:06:34;;;;;;;10.15;6.28;;;;;;;1.33;58.11;100679.97;4970813;28;20050;-60
2022/03/07 05:08:59;;;;;;;10.95;5.82;;;;;;;1.37;58.56;100689.63;4970876;28;20505;-60
2022/03/07 05:11:25;;;;;;;10.50;6.50;;;;;;;1.34;59.02;100695.72;4971710;28;20356;-60
2022/03/07 05:13:51;;;;;;;13.25;6.28;;;;;;;1.18;58.27;100687.59;4971572;28;20084;-60
2022/03/07 05:16:16;;;;;;;10.48;6.97;;;;;;;1.09;58.95;100688.34;4970903;28;20101;-60
2022/03/07 05:18:42;;;;;;;10.18;6.80;;;;;;;1.15;59.73;100692.81;4971081;28;20470;-60
2022/03/07 05:21:07;;;;;;;11.98;6.63;;;;;;;1.13;59.60;100695.41;4970842;28;20022;-60
2022/03/07 05:23:33;;;;;;;10.32;6.30;;;;;;;1.13;59.84;100697.13;4971402;28;20172;-60
2022/03/07 05:25:58;;;;;;;13.00;7.22;;;;;;;1.05;60.46;100694.41;4971361;28;20040;-60
2022/03/07 05:28:24;;;;;;;10.32;6.50;;;;;;;1.10;60.01;100697.94;4971393;28;20414;-60
2022/03/07 05:30:49;;;;;;;11.73;6.60;;;;;;;1.06;60.42;100700.50;4971163;28;20049;-60
2022/03/07 05:33:15;;;;;;;11.82;6.60;;;;;;;1.08;60.39;100704.03;4971088;28;20019;-60
2022/03/07 05:35:40;;;;;;;16.17;6.55;;;;;;;1.01;61.15;100704.78;4971599;28;20034;-60
2022/03/07 05:38:06;;;;;;;10.00;6.40;;;;;;;1.03;61.40;100698.72;4971525;28;20359;-60
2022/03/07 05:40:32;;;;;;;11.23;7.40;;;;;;;1.05;61.62;100696.13;4970977;28;20037;-60
2022/03/07 05:42:57;;;;;;;14.07;7.68;;;;;;;1.12;61.53;100703.25;4970715;28;20023;-60
2022/03/07 05:45:22;;;;;;;11.18;7.07;;;;;;;1.13;61.55;100710.22;4970927;28;20035;-60
2022/03/07 05:47:48;;;;;;;14.60;6.70;;;;;;;1.07;62.40;100710.16;4970822;28;20023;-60
2022/03/07 05:50:13;;;;;;;9.60;6.45;;;;;;;1.01;62.87;100710.91;4970123;28;20026;-60
2022/03/07 05:52:39;;;;;;;10.23;6.70;;;;;;;1.06;61.92;100709.25;4970052;28;20018;-60
2022/03/07 05:55:06;;;;;;;16.30;7.47;;;;;;;1.08;62.77;100714.50;4970424;28;20030;-60
2022/03/07 05:57:32;;;;;;;11.13;6.70;;;;;;;1.05;63.49;100717.09;4970989;28;20026;-60
2022/03/07 05:59:57;;;;;;;11.68;6.72;;;;;;;1.04;63.48;100725.78;4970418;28;20146;-60
2022/03/07 06:02:23;;;;;;;13.32;6.55;;;;;;;1.10;63.29;100723.28;4970550;28;20480;-60
2022/03/07 06:04:48;;;;;;;9.50;5.90;;;;;;;1.10;64.15;100726.75;4985248;28;20564;-60
2022/03/07 06:07:14;;;;;;;12.38;6.85;;;;;;;1.09;63.75;100730.25;4970588;28;20471;-60
2022/03/07 06:09:39;;;;;;;9.23;5.70;;;;;;;1.14;64.19;100733.81;4970444;28;20113;-60
2022/03/07 06:12:06;;;;;;;8.88;5.72;;;;;;;1.10;63.84;100734.63;4970701;28;20050;-60
2022/03/07 06:14:31;;;;;;;17.45;6.53;;;;;;;1.07;64.16;100724.09;4970737;28;20022;-60
2022/03/07 06:16:57;;;;;;;10.23;4.78;;;;;;;1.18;63.84;100729.53;4970526;28;20502;-60
2022/03/07 06:19:22;;;;;;;7.97;5.43;;;;;;;1.18;63.74;100722.56;4970330;28;20033;-60
2022/03/07 06:21:48;;;;;;;11.75;5.85;;;;;;;1.39;63.61;100737.72;4970251;28;20110;-60
2022/03/07 06:24:13;;;;;;;8.57;5.93;;;;;;;1.58;62.71;100738.88;4969382;28;20030;-60
2022/03/07 06:26:38;;;;;;;7.15;5.18;;;;;;;1.86;62.06;100739.28;4970738;28;20500;-60
2022/03/07 06:29:05;;;;;;;10.18;5.32;;;;;;;2.37;59.96;100724.19;4969851;28;20402;-60
2022/03/07 06:31:31;;;;;;;8.15;5.07;;;;;;;3.32;57.87;100740.00;4970546;28;20027;-60
2022/03/07 06:33:56;;;;;;;11.38;5.45;;;;;;;4.06;54.09;100736.13;4970523;28;20429;-60
2022/03/07 06:36:22;;;;;;;11.18;5.40;;;;;;;4.38;52.16;100739.78;4970726;28;20125;-60
2022/03/07 06:38:47;;;;;;;11.35;5.25;;;;;;;4.07;52.88;100730.84;4970219;28;20031;-60
2022/03/07 06:41:12;;;;;;;8.05;4.13;;;;;;;3.51;53.51;100736.66;4969946;28;20062;-60
2022/03/07 06:43:39;;;;;;;7.07;4.25;;;;;;;3.01;54.45;100738.00;4970490;28;20441;-60
2022/03/07 06:46:05;;;;;;;8.10;4.93;;;;;;;2.52;56.44;100729.63;4970193;28;20124;-60
2022/03/07 06:48:30;;;;;;;9.38;5.82;;;;;;;2.62;58.70;100734.09;4985322;28;20093;-60
2022/03/07 06:50:56;;;;;;;7.57;4.82;;;;;;;3.87;55.33;100726.38;4969702;28;20031;-60
2022/03/07 06:53:21;;;;;;;9.38;5.63;;;;;;;5.84;51.12;100725.84;4969738;28;20035;-60
2022/03/07 06:55:47;;;;;;;8.30;5.28;;;;;;;7.31;47.02;100732.13;4970083;28;20340;-60
2022/03/07 06:58:12;;;;;;;8.45;4.88;;;;;;;8.26;43.30;100721.47;4970282;28;20035;-60
2022/03/07 07:00:37;;;;;;;7.60;4.45;;;;;;;8.85;42.15;100718.00;4969976;28;20440;-60
2022/03/07 07:03:03;;;;;;;11.40;5.70;;;;;;;8.98;41.54;100719.59;4970297;28;20035;-60
2022/03/07 07:05:28;;;;;;;11.82;5.30;;;;;;;8.55;41.76;100726.41;4973781;28;20061;-60
2022/03/07 07:07:54;;;;;;;9.25;5.53;;;;;;;7.35;43.57;100739.13;4972868;28;20026;-60
2022/03/07 07:10:20;;;;;;;8.88;5.18;;;;;;;7.27;45.78;100739.19;4971782;28;20041;-60
2022/03/07 07:12:47;;;;;;;9.10;4.82;;;;;;;8.33;42.13;100732.88;4973459;28;20053;-60
2022/03/07 07:15:13;;;;;;;8.38;5.40;;;;;;;9.25;41.73;100724.47;4973667;28;20019;-60
2022/03/07 07:17:39;;;;;;;11.82;4.88;;;;;;;10.19;39.17;100729.91;4973950;28;20030;-60
2022/03/07 07:20:06;;;;;;;9.25;5.32;;;;;;;10.78;38.10;100735.72;4973186;28;20382;-60
2022/03/07 07:22:32;;;;;;;10.02;4.72;;;;;;;10.93;37.10;100735.41;4973575;28;20042;-60
2022/03/07 07:24:58;;;;;;;7.45;5.10;;;;;;;11.76;35.74;100737.78;4972889;28;20102;-60
2022/03/07 07:27:23;;;;;;;7.88;4.50;;;;;;;11.64;35.78;100742.59;4973068;28;20039;-60
2022/03/07 07:29:49;;;;;;;9.15;5.50;;;;;;;12.16;35.29;100742.94;4972895;28;20037;-60
2022/03/07 07:32:15;;;;;;;8.25;4.82;;;;;;;12.54;34.24;100739.19;4973196;28;20027;-60
2022/03/07 07:34:40;;;;;;;7.13;5.13;;;;;;;12.44;33.68;100738.59;4971613;28;20114;-60
2022/03/07 07:37:06;;;;;;;8.95;5.07;;;;;;;12.07;33.97;100700.53;4972708;28;20817;-60
2022/03/07 07:39:31;;;;;;;9.52;4.78;;;;;;;12.63;34.41;100745.16;4972114;28;20085;-60
2022/03/07 07:41:56;;;;;;;9.98;4.72;;;;;;;12.71;33.87;100743.13;4971698;28;20607;-60
2022/03/07 07:44:22;;;;;;;6.43;4.35;;;;;;;13.47;33.15;100732.75;4973070;28;20031;-60
2022/03/07 07:46:47;;;;;;;8.77;4.63;;;;;;;12.91;33.10;100740.75;4971868;28;20405;-60
2022/03/07 07:49:14;;;;;;;11.90;4.47;;;;;;;13.91;32.29;100748.16;4972297;28;20023;-60
2022/03/07 07:51:40;;;;;;;7.68;4.10;;;;;;;14.03;31.33;100755.78;4973163;28;20086;-60
2022/03/07 07:54:05;;;;;;;9.38;4.10;;;;;;;13.90;30.93;100762.47;4972861;28;20051;-60
2022/03/07 07:56:31;;;;;;;8.57;4.57;;;;;;;13.55;32.10;100768.13;4972701;28;20029;-60
2022/03/07 07:58:56;;;;;;;9.02;4.32;;;;;;;13.43;32.63;100772.06;4972011;28;20485;-61
2022/03/07 08:01:22;;;;;;;7.88;4.88;;;;;;;13.24;31.79;100765.56;4968646;28;20128;-60
2022/03/07 08:03:47;;;;;;;8.60;4.47;;;;;;;13.26;32.43;100773.53;4972779;28;20053;-61
2022/03/07 08:06:12;;;;;;;11.50;4.68;;;;;;;13.31;32.34;100777.78;4972632;28;20051;-60
2022/03/07 08:08:38;;;;;;;9.63;4.60;;;;;;;13.50;31.93;100775.41;4966162;28;20019;-60
2022/03/07 08:11:03;;;;;;;9.65;4.70;;;;;;;12.93;32.12;100770.91;4972064;28;20442;-60
2022/03/07 08:13:29;;;;;;;8.93;4.22;;;;;;;12.80;32.80;100771.38;4971746;28;20564;-60
2022/03/07 08:15:54;;;;;;;5.90;3.78;;;;;;;12.73;32.66;100778.69;4972298;28;20081;-60
2022/03/07 08:18:20;;;;;;;7.63;3.80;;;;;;;12.70;32.91;100777.88;4972414;28;20093;-61
2022/03/07 08:20:49;;;;;;;6.75;3.97;;;;;;;12.89;33.01;100769.28;4971839;28;20057;-61
2022/03/07 08:23:15;;;;;;;7.40;4.90;;;;;;;12.58;32.46;100767.56;4972304;28;20425;-61
2022/03/07 08:25:40;;;;;;;10.25;4.82;;;;;;;12.43;32.17;100779.53;4972431;28;20058;-61
2022/03/07 08:28:05;;;;;;;7.47;4.90;;;;;;;12.68;33.92;100772.59;4972129;28;20046;-61
2022/03/07 08:30:33;;;;;;;6.90;4.32;;;;;;;12.59;33.55;100770.19;4972126;28;20051;-61
2022/03/07 08:32:58;;;;;;;9.75;4.70;;;;;;;12.38;32.97;100738.78;4972177;28;20054;-61
2022/03/07 08:35:24;;;;;;;6.93;4.40;;;;;;;12.50;32.85;100773.13;4972229;28;20511;-61
2022/03/07 08:37:51;;;;;;;7.75;4.28;;;;;;;12.28;33.60;100789.75;4971846;28;20106;-61
2022/03/07 08:40:18;;;;;;;5.95;4.38;;;;;;;12.35;33.97;100786.88;4970598;28;20027;-61
2022/03/07 08:42:45;;;;;;;7.22;4.28;;;;;;;12.48;32.95;100782.06;4971352;28;20027;-61
2022/03/07 08:45:11;;;;;;;7.15;4.65;;;;;;;11.86;33.02;100781.09;4972278;28;20038;-61
2022/03/07 08:47:38;;;;;;;7.07;5.03;;;;;;;11.71;33.90;100782.34;4971970;28;20053;-61
2022/03/07 08:50:10;;;;;;;11.32;5.25;;;;;;;11.87;33.68;100789.06;4971633;28;20039;-61
2022/03/07 08:52:36;;;;;;;7.85;4.97;;;;;;;12.29;34.32;100786.19;4971912;28;20031;-61
2022/03/07 08:55:03;;;;;;;7.47;4.85;;;;;;;12.22;33.64;100781.91;4971744;28;20031;-61
2022/03/07 08:57:29;;;;;;;8.63;4.93;;;;;;;11.79;35.45;100784.84;4971877;28;20019;-61
2022/03/07 08:59:54;;;;;;;8.35;4.80;;;;;;;11.71;34.43;100787.69;4971227;28;20529;-61
2022/03/07 09:02:20;;;;;;;6.63;4.05;;;;;;;11.54;34.26;100791.66;4970730;28;20027;-61
2022/03/07 09:04:45;;;;;;;7.95;4.88;;;;;;;11.58;34.90;100796.00;4971723;28;20538;-61
2022/03/07 09:07:10;;;;;;;13.15;5.47;;;;;;;11.86;34.91;100781.09;4971270;28;20051;-62
2022/03/07 09:09:37;;;;;;;8.27;5.28;;;;;;;11.39;33.30;100786.69;4970787;28;20031;-62
2022/03/07 09:12:04;;;;;;;7.32;4.70;;;;;;;11.89;34.12;100781.88;4971309;28;20109;-61
2022/03/07 09:14:30;;;;;;;10.75;5.70;;;;;;;11.89;33.64;100775.69;4986494;28;20034;-61
2022/03/07 09:16:56;;;;;;;10.95;4.70;;;;;;;12.07;33.59;100788.53;4970775;28;20478;-61
2022/03/07 09:19:21;;;;;;;10.02;5.32;;;;;;;12.15;33.17;100783.88;4970017;28;20033;-61
2022/03/07 09:21:47;;;;;;;9.85;4.95;;;;;;;12.06;33.57;100781.44;4970776;28;20034;-62
2022/03/07 09:24:13;;;;;;;9.57;5.25;;;;;;;12.42;32.93;100776.91;4970712;28;20030;-62
2022/03/07 09:26:38;;;;;;;6.63;4.78;;;;;;;12.65;33.75;100778.00;4971080;28;20038;-62
2022/03/07 09:29:05;;;;;;;11.77;5.00;;;;;;;12.83;33.59;100774.78;4970649;28;20054;-62
2022/03/07 09:31:30;;;;;;;9.52;5.22;;;;;;;13.23;33.25;100770.97;4971047;28;20027;-62
2022/03/07 09:33:57;;;;;;;13.15;5.57;;;;;;;13.18;33.66;100784.44;4971106;28;20038;-62
2022/03/07 09:36:22;;;;;;;9.38;5.60;;;;;;;13.03;32.98;100782.25;4971013;28;20027;-62
2022/03/07 09:38:50;;;;;;;8.02;5.18;;;;;;;12.65;32.32;100780.66;4953440;28;20395;-62
2022/03/07 09:41:17;;;;;;;9.48;5.25;;;;;;;12.75;33.03;100771.47;4970836;28;20038;-62
2022/03/07 09:43:44;;;;;;;10.23;5.18;;;;;;;13.49;32.67;100790.59;4970738;28;20026;-62
2022/03/07 09:46:09;;;;;;;6.60;4.07;;;;;;;13.02;32.69;100770.69;4971091;28;20039;-62
2022/03/07 09:48:35;;;;;;;8.07;4.97;;;;;;;12.98;32.96;100790.34;4969941;28;20027;-61
2022/03/07 09:51:00;;;;;;;8.15;5.18;;;;;;;13.02;33.41;100776.03;4969813;28;20054;-62
2022/03/07 09:53:26;;;;;;;9.02;5.65;;;;;;;13.15;31.81;100776.53;4970134;28;20384;-62
2022/03/07 09:55:51;;;;;;;8.50;4.80;;;;;;;13.66;31.60;100780.19;4971068;28;20437;-62
2022/03/07 09:58:17;;;;;;;8.15;5.05;;;;;;;14.18;30.52;100790.03;4970856;28;20058;-62
2022/03/07 10:00:43;;;;;;;7.90;5.32;;;;;;;13.90;31.53;100784.75;4970336;28;20030;-62
2022/03/07 10:03:11;;;;;;;7.97;5.30;;;;;;;13.99;30.74;100783.53;4970520;28;20048;-62
2022/03/07 10:05:40;;;;;;;41.75;7.13;;;;;;;14.28;30.06;100788.81;4971008;28;20517;-62
2022/03/07 10:08:06;;;;;;;10.02;5.72;;;;;;;14.23;30.76;100788.91;4970479;28;20506;-62
2022/03/07 10:10:35;;;;;;;10.95;5.40;;;;;;;14.52;30.04;100785.25;4970308;28;20031;-62
2022/03/07 10:13:10;;;;;;;11.52;6.18;;;;;;;14.61;29.68;100776.88;4970559;28;20509;-62
2022/03/07 10:15:36;;;;;;;10.50;5.72;;;;;;;14.26;30.46;100790.66;4970982;28;20031;-62
2022/03/07 10:18:02;;;;;;;12.57;6.03;;;;;;;14.61;30.94;100776.88;4970457;28;20140;-62
2022/03/07 10:20:28;;;;;;;10.52;6.25;;;;;;;14.47;30.75;100777.38;4970330;28;20033;-62
2022/03/07 10:22:56;;;;;;;11.35;6.03;;;;;;;14.21;30.06;100779.22;4969368;28;20018;-62
2022/03/07 10:25:29;;;;;;;10.80;6.50;;;;;;;14.01;29.70;100782.56;4971576;28;20397;-62
2022/03/07 10:27:56;;;;;;;8.20;5.35;;;;;;;13.99;31.16;100783.53;4971517;28;20033;-62
2022/03/07 10:30:25;;;;;;;10.15;5.75;;;;;;;13.57;29.93;100777.84;4970061;28;20034;-61
2022/03/07 10:32:54;;;;;;;8.93;5.45;;;;;;;13.98;29.41;100787.16;4970240;28;20393;-61
2022/03/07 10:35:22;;;;;;;11.15;6.25;;;;;;;14.71;31.71;100777.41;4969409;28;20037;-62
2022/03/07 10:37:48;;;;;;;12.50;7.13;;;;;;;14.99;30.03;100773.63;4970790;28;20027;-62
2022/03/07 10:40:21;;;;;;;9.32;5.75;;;;;;;14.87;29.06;100776.78;4973846;28;20046;-61
2022/03/07 10:42:49;;;;;;;11.18;5.65;;;;;;;15.07;29.86;100776.91;4974010;28;20038;-61
2022/03/07 10:45:15;;;;;;;10.32;6.45;;;;;;;15.00;29.04;100777.19;4974728;28;20035;-62
2022/03/07 10:47:41;;;;;;;9.75;6.13;;;;;;;15.40;29.28;100780.94;4974411;28;20033;-62
2022/03/07 10:50:07;;;;;;;10.07;6.07;;;;;;;15.69;28.10;100775.28;4973817;28;20102;-61
2022/03/07 10:52:39;;;;;;;11.65;5.65;;;;;;;15.51;28.85;100773.34;4973988;28;20034;-62
2022/03/07 10:55:10;;;;;;;10.88;5.93;;;;;;;15.59;28.54;100776.59;4974423;28;20027;-62
2022/03/07 10:57:38;;;;;;;10.23;5.75;;;;;;;15.59;27.54;100773.91;4973954;28;20026;-62
2022/03/07 11:00:08;;;;;;;9.90;5.85;;;;;;;15.08;27.62;100772.38;4973447;28;20662;-62
2022/03/07 11:02:52;;;;;;;10.38;5.57;;;;;;;15.17;28.11;100764.00;4953585;29;20031;-62
2022/03/07 11:05:18;;;;;;;11.00;6.18;;;;;;;15.54;28.54;100759.81;4955021;29;20503;-62
2022/03/07 11:07:49;;;;;;;9.85;5.45;;;;;;;15.42;28.92;100749.56;4955347;28;20046;-62
2022/03/07 11:10:16;;;;;;;11.68;6.82;;;;;;;15.19;29.02;100762.16;4973287;28;20427;-61
2022/03/07 11:12:42;;;;;;;11.70;6.45;;;;;;;15.04;29.26;100760.91;4973868;28;20432;-61
2022/03/07 11:15:09;;;;;;;10.10;6.43;;;;;;;14.97;27.90;100753.19;4973716;28;20042;-62
2022/03/07 11:17:43;;;;;;;12.27;6.72;;;;;;;14.75;27.94;100750.44;4972505;28;20033;-62
2022/03/07 11:20:11;;;;;;;10.50;6.57;;;;;;;15.08;28.40;100748.28;4973416;28;20082;-63